Terminal Aerodrome Forecast
Issued by NWS Omaha/Valley, NE

Home | Current Version | Previous Version | Text Only | Print | Product List | Glossary On
Versions: 1 2 3 4 5 6 7 8 9 10 11 12 13 14 15 16 17 18 19 20 21 22 23 24 25 26 27 28 29 30 31 32 33 34 35 36 37 38 39 40 41 42 43 44 45 46 47 48 49
000
FTUS43 KOAX 202323
TAFOMA
TAF
KOMA 202323Z 2100/2124 17009KT 2SM BR OVC005
      TEMPO 2104/2106 3/4SM BR OVC002
     FM210600 16008KT 1/2SM FG OVC002
     FM211000 16009KT 1 1/2SM BR OVC004
     FM211300 16011KT 2SM BR OVC007
     FM211600 17013KT 4SM BR OVC012
     FM211900 17015G22KT 5SM BR OVC015=

USA.gov is the U.S. government's official web portal to all federal, state and local government web resources and services.